Date,TemperatureHighF,TemperatureAvgF,TemperatureLowF,DewpointHighF,DewpointAvgF,DewpointLowF,HumidityHigh,HumidityAvg,HumidityLow,PressureMaxIn,PressureMinIn,WindSpeedMaxMPH,WindSpeedAvgMPH,GustSpeedMaxMPH,PrecipitationSumIn
2013-2-1,37.9,27.5,18.1,18.3,4.8,-4.5,65,38,27,30.31,29.75,21,-1,21,1.17
2013-2-2,30.7,23.2,14.5,18.1,6.0,-4.0,63,48,36,30.31,29.90,6,-29,6,2.18
2013-2-3,38.7,31.1,26.6,24.1,20.3,16.9,71,64,52,29.93,29.72,19,-15,20,0.00
2013-2-7,39.7,38.6,37.6,20.7,19.1,17.8,50,45,41,30.25,30.10,3,1,3,2.26
2013-2-8,42.4,37.1,33.1,31.6,24.9,15.1,75,62,44,30.10,29.72,19,-2,19,0.17
2013-2-9,53.2,36.8,29.1,20.1,12.2,5.5,49,37,24,30.31,29.90,15,-13,15,1.32
2013-2-10,59.9,37.7,22.8,23.4,11.9,5.7,52,36,20,30.37,30.13,7,-7,7,0.00
2013-2-11,61.9,47.6,37.4,45.5,33.6,14.9,75,60,27,30.16,29.66,20,-16,20,0.08
2013-2-12,72.3,51.8,39.9,29.8,20.8,15.1,40,30,19,29.93,29.75,9,-114,12,0.00
2013-2-13,47.7,37.9,32.7,28.2,22.3,16.7,75,54,39,29.90,29.60,4,-44,20,0.05
2013-2-14,61.5,42.9,32.9,29.3,23.2,17.4,75,48,26,29.96,29.72,6,-12,6,0.12
2013-2-15,74.3,44.4,32.0,33.1,25.2,17.4,73,50,22,29.99,29.84,8,-11,8,1.46
2013-2-16,41.2,35.7,29.5,29.8,20.6,7.0,75,55,38,29.96,29.78,10,-15,11,1.46
2013-2-17,40.1,28.6,23.7,10.4,5.1,-0.8,45,37,28,30.10,29.78,12,-13,21,0.92
2013-2-18,60.3,34.9,20.3,22.1,5.9,-2.0,40,30,17,30.28,30.04,18,-7,18,0.00
2013-2-19,55.0,41.1,36.5,34.7,22.4,10.8,65,48,32,30.04,29.63,10,-25,20,1.04
2013-2-20,50.7,35.2,24.4,18.0,9.4,0.1,41,34,27,30.07,29.78,11,-58,11,0.00
2013-2-21,49.3,32.2,23.5,16.7,7.1,0.0,41,35,27,30.22,30.01,21,-9,21,0.00
2013-2-22,34.7,32.3,28.8,22.6,16.0,8.6,62,51,41,30.28,30.10,5,-40,5,0.04
2013-2-23,50.2,39.5,34.0,40.1,31.2,22.5,78,72,62,30.10,29.75,20,-83,20,0.00
2013-2-24,62.1,44.3,32.7,36.7,24.6,11.1,79,50,24,30.07,29.72,57,-10,57,0.00
2013-2-25,63.0,40.2,28.6,25.7,14.9,10.0,49,36,22,30.16,30.01,6,-25,6,0.78
2013-2-26,42.3,36.2,28.2,37.9,25.1,11.3,86,65,44,30.13,29.57,20,-3,20,1.52
2013-2-27,65.8,48.0,39.4,42.4,31.4,24.1,86,57,27,29.63,29.48,7,-16,21,0.66
2013-2-28,49.1,43.4,37.4,30.6,22.7,18.9,62,44,33,29.69,29.57,21,-24,21,0.00